Time;durP1;ratioP1;P1;durP2;ratioP2;P2;SDS_P1;SDS_P2;PMS_P1;PMS_P2;Temp;Humidity;BMP_temperature;BMP_pressure;BME280_temperature;BME280_humidity;BME280_pressure;Samples;Min_cycle;Max_cycle;Signal;HPM_P1;HPM_P2
2023/07/24 00:01:45;;;;;;;8.85;3.22;;;;;;;;;;5034610;28;20037;-91
2023/07/24 00:04:11;;;;;;;6.18;3.28;;;;;;;;;;5021850;28;20037;-92
2023/07/24 00:06:37;;;;;;;6.43;3.60;;;;;;;;;;5013223;28;20127;-91
2023/07/24 00:09:03;;;;;;;3.72;3.05;;;;;;;;;;5042381;28;20037;-92
2023/07/24 00:11:29;;;;;;;4.47;3.10;;;;;;;;;;5045068;28;20031;-92
2023/07/24 00:13:55;;;;;;;4.65;3.47;;;;;;;;;;5044051;28;20043;-91
2023/07/24 00:16:21;;;;;;;5.55;3.67;;;;;;;;;;5048169;28;20036;-92
2023/07/24 00:18:47;;;;;;;4.25;3.17;;;;;;;;;;5037487;28;20540;-91
2023/07/24 00:21:13;;;;;;;4.93;3.72;;;;;;;;;;5046556;28;20037;-91
2023/07/24 00:23:39;;;;;;;6.53;4.10;;;;;;;;;;5043871;28;20378;-91
2023/07/24 00:26:05;;;;;;;5.57;4.05;;;;;;;;;;5025301;28;20081;-91
2023/07/24 00:28:31;;;;;;;4.50;3.80;;;;;;;;;;5021346;28;20069;-91
2023/07/24 00:30:57;;;;;;;4.93;4.22;;;;;;;;;;5040376;28;20049;-92
2023/07/24 00:33:23;;;;;;;5.55;4.00;;;;;;;;;;5043513;28;20136;-91
2023/07/24 00:35:49;;;;;;;6.05;4.90;;;;;;;;;;5035513;28;20046;-92
2023/07/24 00:38:15;;;;;;;6.18;4.78;;;;;;;;;;5036726;28;20079;-92
2023/07/24 00:40:41;;;;;;;6.88;5.05;;;;;;;;;;5045684;28;20048;-92
2023/07/24 00:43:07;;;;;;;6.03;5.00;;;;;;;;;;5046408;28;20110;-91
2023/07/24 00:45:33;;;;;;;6.95;4.97;;;;;;;;;;5046334;28;20410;-91
2023/07/24 00:48:00;;;;;;;6.88;4.75;;;;;;;;;;5038723;28;20048;-91
2023/07/24 00:50:27;;;;;;;6.40;5.05;;;;;;;;;;5033983;28;20041;-91
2023/07/24 00:52:54;;;;;;;7.03;5.22;;;;;;;;;;5031296;28;20819;-93
2023/07/24 00:55:20;;;;;;;6.50;4.90;;;;;;;;;;5049679;28;20041;-91
2023/07/24 00:57:46;;;;;;;9.20;5.47;;;;;;;;;;5038666;28;20041;-92
2023/07/24 01:00:12;;;;;;;6.72;5.72;;;;;;;;;;5036168;28;20054;-91
2023/07/24 01:02:38;;;;;;;7.72;5.78;;;;;;;;;;5034316;28;20045;-92
2023/07/24 01:05:05;;;;;;;8.05;5.55;;;;;;;;;;5032962;28;20068;-91
2023/07/24 01:07:31;;;;;;;6.22;5.43;;;;;;;;;;5030823;28;20046;-93
2023/07/24 01:09:57;;;;;;;6.82;5.20;;;;;;;;;;5034246;28;20049;-91
2023/07/24 01:12:26;;;;;;;9.40;6.10;;;;;;;;;;5023341;28;20537;-90
2023/07/24 01:15:09;;;;;;;6.82;5.50;;;;;;;;;;5029370;28;20037;-92
2023/07/24 01:17:36;;;;;;;8.30;5.65;;;;;;;;;;5044638;28;20041;-91
2023/07/24 01:20:03;;;;;;;8.88;6.03;;;;;;;;;;5048507;28;20060;-93
2023/07/24 01:22:29;;;;;;;7.15;5.10;;;;;;;;;;5022213;28;20037;-93
2023/07/24 01:25:11;;;;;;;7.03;5.43;;;;;;;;;;5047644;28;20472;-91
2023/07/24 01:27:40;;;;;;;7.22;5.30;;;;;;;;;;5043478;28;20053;-92
2023/07/24 01:30:07;;;;;;;5.85;4.72;;;;;;;;;;5033255;28;20095;-93
2023/07/24 01:32:33;;;;;;;10.65;5.72;;;;;;;;;;5031355;28;20092;-92
2023/07/24 01:34:59;;;;;;;7.57;5.53;;;;;;;;;;5034258;28;20132;-92
2023/07/24 01:37:25;;;;;;;5.97;4.82;;;;;;;;;;5034678;28;20033;-92
2023/07/24 01:39:53;;;;;;;7.10;5.28;;;;;;;;;;5030739;28;20045;-92
2023/07/24 01:42:19;;;;;;;6.78;5.40;;;;;;;;;;5040636;28;20047;-91
2023/07/24 01:44:45;;;;;;;7.18;5.20;;;;;;;;;;4996995;28;20116;-93
2023/07/24 01:47:11;;;;;;;6.40;5.00;;;;;;;;;;5030355;28;20444;-92
2023/07/24 01:49:37;;;;;;;8.30;5.90;;;;;;;;;;4994911;28;20041;-91
2023/07/24 01:52:03;;;;;;;7.32;4.90;;;;;;;;;;5029023;28;20396;-92
2023/07/24 01:54:29;;;;;;;6.65;5.10;;;;;;;;;;5045053;28;20048;-93
2023/07/24 01:56:55;;;;;;;6.25;4.88;;;;;;;;;;5041375;28;20457;-92
2023/07/24 01:59:21;;;;;;;6.35;4.93;;;;;;;;;;5040831;28;20131;-93
2023/07/24 02:01:47;;;;;;;6.13;5.25;;;;;;;;;;5018387;28;20051;-93
2023/07/24 02:04:13;;;;;;;6.40;4.88;;;;;;;;;;5043548;28;20037;-93
2023/07/24 02:06:39;;;;;;;5.53;4.38;;;;;;;;;;5035767;28;20053;-91
2023/07/24 02:09:05;;;;;;;6.82;4.80;;;;;;;;;;5023669;28;20036;-92
2023/07/24 02:11:31;;;;;;;6.28;4.43;;;;;;;;;;5041998;28;20056;-92
2023/07/24 02:13:57;;;;;;;6.28;5.07;;;;;;;;;;5031595;28;20520;-93
2023/07/24 02:16:23;;;;;;;6.70;5.18;;;;;;;;;;5030991;28;20099;-93
2023/07/24 02:18:49;;;;;;;7.35;4.95;;;;;;;;;;5019977;28;20045;-93
2023/07/24 02:21:15;;;;;;;8.65;5.28;;;;;;;;;;5028197;28;20491;-92
2023/07/24 02:23:41;;;;;;;6.88;4.80;;;;;;;;;;5035193;28;20099;-93
2023/07/24 02:26:07;;;;;;;6.28;4.65;;;;;;;;;;5031091;28;20060;-93
2023/07/24 02:28:33;;;;;;;6.45;4.20;;;;;;;;;;5028840;28;20046;-93
2023/07/24 02:31:00;;;;;;;6.68;5.25;;;;;;;;;;5046928;28;20067;-93
2023/07/24 02:33:26;;;;;;;5.05;3.95;;;;;;;;;;5037973;28;20047;-93
2023/07/24 02:35:52;;;;;;;8.00;4.50;;;;;;;;;;5038378;28;20084;-93
2023/07/24 02:38:18;;;;;;;5.20;3.72;;;;;;;;;;5047606;28;20129;-93
2023/07/24 02:40:45;;;;;;;5.57;4.10;;;;;;;;;;5051079;28;20128;-92
2023/07/24 02:43:11;;;;;;;6.22;4.25;;;;;;;;;;5041699;28;20036;-92
2023/07/24 02:45:37;;;;;;;5.60;4.03;;;;;;;;;;5053006;28;20409;-93
2023/07/24 02:48:03;;;;;;;6.07;4.22;;;;;;;;;;5039854;28;20041;-93
2023/07/24 02:50:29;;;;;;;6.43;4.53;;;;;;;;;;5027822;28;20048;-92
2023/07/24 02:52:55;;;;;;;5.15;4.07;;;;;;;;;;5037166;28;20628;-91
2023/07/24 02:55:21;;;;;;;5.60;3.78;;;;;;;;;;5033954;28;20048;-93
2023/07/24 02:57:47;;;;;;;6.88;4.70;;;;;;;;;;5034307;28;20045;-91
2023/07/24 03:00:14;;;;;;;5.57;3.78;;;;;;;;;;5037937;28;20111;-93
2023/07/24 03:02:40;;;;;;;5.55;4.05;;;;;;;;;;5019717;28;20041;-94
2023/07/24 03:05:06;;;;;;;6.85;4.80;;;;;;;;;;5035934;28;20375;-94
2023/07/24 03:07:32;;;;;;;5.75;4.20;;;;;;;;;;5047698;28;20083;-93
2023/07/24 03:09:58;;;;;;;6.90;4.32;;;;;;;;;;5039845;28;20122;-93
2023/07/24 03:12:25;;;;;;;6.32;4.35;;;;;;;;;;5041149;28;20053;-96
2023/07/24 03:14:51;;;;;;;5.35;3.58;;;;;;;;;;5042958;28;20379;-95
2023/07/24 03:17:17;;;;;;;6.43;4.35;;;;;;;;;;5036152;28;20041;-95
2023/07/24 03:19:43;;;;;;;4.40;3.65;;;;;;;;;;5052707;28;20094;-95
2023/07/24 03:22:09;;;;;;;6.43;4.20;;;;;;;;;;5022071;28;20092;-96
2023/07/24 03:24:35;;;;;;;5.57;4.43;;;;;;;;;;5051016;28;20402;-94
2023/07/24 03:27:02;;;;;;;5.88;3.90;;;;;;;;;;5042288;28;20064;-96
2023/07/24 03:29:28;;;;;;;5.18;4.20;;;;;;;;;;5031659;28;20048;-94
2023/07/24 03:31:54;;;;;;;6.80;4.40;;;;;;;;;;5036076;28;20136;-95
2023/07/24 03:34:20;;;;;;;6.07;4.15;;;;;;;;;;5033753;28;20045;-95
2023/07/24 03:36:46;;;;;;;6.70;3.95;;;;;;;;;;5027743;28;20041;-95
2023/07/24 03:39:12;;;;;;;5.80;4.10;;;;;;;;;;5037386;28;20120;-95
2023/07/24 03:41:38;;;;;;;6.93;3.42;;;;;;;;;;5039614;28;20041;-96
2023/07/24 03:44:05;;;;;;;6.28;4.43;;;;;;;;;;5042425;28;20043;-96
2023/07/24 03:46:32;;;;;;;5.40;3.42;;;;;;;;;;5049992;28;20500;-96
2023/07/24 03:48:58;;;;;;;4.80;3.80;;;;;;;;;;5050429;28;20061;-94
2023/07/24 03:51:24;;;;;;;5.10;3.85;;;;;;;;;;5026327;28;20048;-96
2023/07/24 03:53:50;;;;;;;6.55;4.80;;;;;;;;;;5020848;28;20037;-95
2023/07/24 03:56:16;;;;;;;6.57;4.50;;;;;;;;;;5026729;28;20041;-96
2023/07/24 03:58:42;;;;;;;6.43;4.57;;;;;;;;;;5043732;28;20083;-96
2023/07/24 04:01:09;;;;;;;7.75;4.30;;;;;;;;;;5039702;28;20053;-94
2023/07/24 04:03:35;;;;;;;6.18;4.18;;;;;;;;;;5038379;28;20037;-95
2023/07/24 04:06:02;;;;;;;5.65;4.30;;;;;;;;;;5052342;28;20072;-95
2023/07/24 04:08:28;;;;;;;6.30;4.75;;;;;;;;;;5013094;28;20080;-96
2023/07/24 04:10:56;;;;;;;5.80;3.97;;;;;;;;;;5031810;28;20045;-95
2023/07/24 04:13:22;;;;;;;5.28;4.22;;;;;;;;;;5044421;28;20045;-96
2023/07/24 04:15:48;;;;;;;5.63;4.25;;;;;;;;;;5046248;28;20064;-96
2023/07/24 04:18:14;;;;;;;4.43;3.53;;;;;;;;;;5043369;28;20034;-96
2023/07/24 04:20:40;;;;;;;5.90;4.13;;;;;;;;;;5048629;28;20079;-96
2023/07/24 04:23:06;;;;;;;5.85;4.07;;;;;;;;;;5053924;28;20050;-96
2023/07/24 04:25:32;;;;;;;5.25;4.00;;;;;;;;;;5042632;28;20076;-94
2023/07/24 04:27:58;;;;;;;6.10;4.20;;;;;;;;;;5052053;28;20030;-96
2023/07/24 04:30:24;;;;;;;5.70;4.63;;;;;;;;;;5041815;28;20033;-96
2023/07/24 04:32:50;;;;;;;6.75;4.57;;;;;;;;;;5034965;28;20049;-96
2023/07/24 04:35:16;;;;;;;5.57;4.30;;;;;;;;;;5042225;28;20029;-96
2023/07/24 04:37:42;;;;;;;5.47;4.15;;;;;;;;;;5059248;28;20043;-96
2023/07/24 04:40:08;;;;;;;6.07;4.20;;;;;;;;;;5035797;28;20040;-96
2023/07/24 04:42:35;;;;;;;6.35;4.88;;;;;;;;;;5043959;28;20059;-95
2023/07/24 04:45:01;;;;;;;7.85;5.20;;;;;;;;;;5038095;28;20041;-95
2023/07/24 04:47:27;;;;;;;6.78;4.50;;;;;;;;;;5051891;28;20098;-96
2023/07/24 04:49:53;;;;;;;5.35;4.80;;;;;;;;;;5047515;28;20051;-95
2023/07/24 04:52:19;;;;;;;5.97;4.45;;;;;;;;;;5017441;28;20052;-91
2023/07/24 04:54:45;;;;;;;5.85;4.93;;;;;;;;;;5004500;28;20040;-95
2023/07/24 04:57:11;;;;;;;6.78;5.18;;;;;;;;;;5046129;28;20041;-94
2023/07/24 04:59:37;;;;;;;5.53;4.63;;;;;;;;;;5016585;28;20111;-95
2023/07/24 05:02:03;;;;;;;7.05;4.93;;;;;;;;;;5031540;28;20053;-95
2023/07/24 05:04:29;;;;;;;6.78;4.97;;;;;;;;;;5012750;28;20037;-95
2023/07/24 05:06:55;;;;;;;6.57;5.07;;;;;;;;;;5031060;28;20041;-95
2023/07/24 05:09:21;;;;;;;7.45;5.07;;;;;;;;;;5044867;28;20088;-95
2023/07/24 05:11:47;;;;;;;6.00;4.72;;;;;;;;;;5022827;28;20441;-93
2023/07/24 05:14:13;;;;;;;7.28;5.25;;;;;;;;;;5011632;28;20096;-88
2023/07/24 05:16:39;;;;;;;6.63;4.60;;;;;;;;;;5030695;28;20064;-89
2023/07/24 05:19:05;;;;;;;7.32;5.07;;;;;;;;;;5013353;28;20089;-92
2023/07/24 05:21:31;;;;;;;7.68;4.82;;;;;;;;;;5040696;28;20102;-90
2023/07/24 05:23:57;;;;;;;6.05;5.15;;;;;;;;;;5025318;28;20397;-92
2023/07/24 05:26:23;;;;;;;6.85;4.55;;;;;;;;;;5032276;28;20041;-92
2023/07/24 05:28:49;;;;;;;6.82;5.38;;;;;;;;;;5026782;28;20041;-91
2023/07/24 05:31:15;;;;;;;6.05;5.20;;;;;;;;;;5039551;28;20390;-91
2023/07/24 05:33:41;;;;;;;6.50;5.13;;;;;;;;;;5035568;28;20092;-92
2023/07/24 05:36:07;;;;;;;7.07;5.25;;;;;;;;;;5036950;28;20137;-94
2023/07/24 05:38:33;;;;;;;6.65;4.80;;;;;;;;;;5033191;28;20190;-93
2023/07/24 05:41:03;;;;;;;7.63;5.13;;;;;;;;;;5025214;28;20041;-93
2023/07/24 05:43:29;;;;;;;6.03;4.65;;;;;;;;;;5016380;28;20173;-91
2023/07/24 05:45:56;;;;;;;7.93;5.80;;;;;;;;;;5029568;28;20159;-92
2023/07/24 05:48:22;;;;;;;9.10;5.90;;;;;;;;;;5031669;28;20045;-92
2023/07/24 05:50:48;;;;;;;6.57;4.93;;;;;;;;;;5036450;28;20046;-91
2023/07/24 05:53:15;;;;;;;5.78;4.63;;;;;;;;;;5044398;28;20686;-89
2023/07/24 05:55:42;;;;;;;6.63;5.03;;;;;;;;;;5031576;28;20048;-89
2023/07/24 05:58:08;;;;;;;8.50;5.20;;;;;;;;;;5049960;28;20539;-91
2023/07/24 06:00:35;;;;;;;7.95;5.45;;;;;;;;;;5018485;28;20049;-91
2023/07/24 06:03:01;;;;;;;6.90;5.00;;;;;;;;;;5030706;28;20052;-91
2023/07/24 06:05:27;;;;;;;6.32;4.93;;;;;;;;;;5043897;28;20412;-92
2023/07/24 06:07:53;;;;;;;6.78;5.03;;;;;;;;;;5047100;28;20039;-91
2023/07/24 06:10:19;;;;;;;5.63;4.53;;;;;;;;;;5025235;28;20037;-89
2023/07/24 06:12:45;;;;;;;7.82;5.00;;;;;;;;;;5032080;28;20087;-89
2023/07/24 06:15:11;;;;;;;6.22;4.45;;;;;;;;;;5030136;28;20045;-91
2023/07/24 06:17:37;;;;;;;6.25;4.82;;;;;;;;;;5041746;28;20049;-90
2023/07/24 06:20:03;;;;;;;6.15;4.70;;;;;;;;;;5016768;28;20037;-91
2023/07/24 06:22:29;;;;;;;6.00;4.38;;;;;;;;;;5040414;28;20080;-89
2023/07/24 06:24:55;;;;;;;8.18;5.28;;;;;;;;;;5018536;28;20080;-91
2023/07/24 06:27:21;;;;;;;8.38;4.78;;;;;;;;;;5027749;28;20446;-93
2023/07/24 06:29:47;;;;;;;6.47;5.18;;;;;;;;;;5015335;28;20135;-91
2023/07/24 06:32:13;;;;;;;5.85;4.95;;;;;;;;;;5012259;28;20127;-90
2023/07/24 06:34:39;;;;;;;7.68;5.68;;;;;;;;;;5016146;28;20389;-89
2023/07/24 06:37:05;;;;;;;7.90;4.97;;;;;;;;;;5025234;28;20045;-91
2023/07/24 06:39:33;;;;;;;6.70;5.32;;;;;;;;;;5058379;28;20132;-96
2023/07/24 06:41:59;;;;;;;7.32;5.68;;;;;;;;;;5066797;28;20461;-88
2023/07/24 06:44:25;;;;;;;7.15;5.22;;;;;;;;;;5029473;28;20041;-90
2023/07/24 06:46:51;;;;;;;8.00;5.38;;;;;;;;;;5034105;28;20516;-90
2023/07/24 06:49:17;;;;;;;6.40;5.07;;;;;;;;;;5035652;28;20081;-89
2023/07/24 06:51:43;;;;;;;7.45;5.38;;;;;;;;;;5037513;28;20041;-91
2023/07/24 06:54:09;;;;;;;8.27;5.43;;;;;;;;;;5027833;28;20397;-91
2023/07/24 06:56:35;;;;;;;7.18;4.97;;;;;;;;;;5036840;28;20439;-91
2023/07/24 06:59:01;;;;;;;8.15;5.35;;;;;;;;;;5025026;28;20041;-90
2023/07/24 07:01:27;;;;;;;6.55;4.65;;;;;;;;;;5037443;28;20107;-92
2023/07/24 07:03:53;;;;;;;10.25;4.80;;;;;;;;;;5038162;28;20424;-89
2023/07/24 07:06:19;;;;;;;7.18;5.10;;;;;;;;;;5037057;28;20748;-91
2023/07/24 07:08:45;;;;;;;7.57;5.60;;;;;;;;;;5024527;28;20140;-89
2023/07/24 07:11:11;;;;;;;5.45;3.97;;;;;;;;;;5022332;28;20041;-91
2023/07/24 07:13:37;;;;;;;7.53;5.03;;;;;;;;;;5024960;28;20593;-91
2023/07/24 07:16:03;;;;;;;7.45;4.82;;;;;;;;;;5037791;28;20116;-88
2023/07/24 07:18:29;;;;;;;7.93;4.80;;;;;;;;;;5029505;28;20079;-91
2023/07/24 07:20:55;;;;;;;7.25;5.03;;;;;;;;;;5040120;28;20029;-93
2023/07/24 07:23:22;;;;;;;8.35;5.32;;;;;;;;;;5030151;28;20041;-94
2023/07/24 07:25:49;;;;;;;6.32;5.10;;;;;;;;;;5033920;28;20045;-89
2023/07/24 07:28:16;;;;;;;6.20;4.32;;;;;;;;;;5044432;28;20195;-92
2023/07/24 07:30:42;;;;;;;7.78;4.55;;;;;;;;;;5039463;28;20033;-91
2023/07/24 07:33:08;;;;;;;10.52;6.53;;;;;;;;;;5041492;28;20041;-90
2023/07/24 07:35:35;;;;;;;9.40;5.35;;;;;;;;;;5042839;28;20127;-92
2023/07/24 07:38:01;;;;;;;9.45;5.60;;;;;;;;;;5040391;28;20040;-91
2023/07/24 07:40:28;;;;;;;10.13;6.32;;;;;;;;;;5037458;28;20072;-88
2023/07/24 07:42:54;;;;;;;7.80;4.75;;;;;;;;;;5044217;28;20068;-91
2023/07/24 07:45:20;;;;;;;6.95;5.22;;;;;;;;;;5045631;28;20421;-90
2023/07/24 07:47:46;;;;;;;6.43;4.75;;;;;;;;;;5033145;28;20033;-92
2023/07/24 07:50:12;;;;;;;9.18;4.55;;;;;;;;;;5044568;28;20129;-92
2023/07/24 07:52:39;;;;;;;6.90;4.95;;;;;;;;;;5037608;28;20037;-92
2023/07/24 07:55:08;;;;;;;7.15;4.47;;;;;;;;;;5042563;28;20080;-93
2023/07/24 07:57:38;;;;;;;10.23;5.03;;;;;;;;;;5013092;28;20041;-89
2023/07/24 08:00:05;;;;;;;6.20;4.45;;;;;;;;;;5028830;28;20061;-90
2023/07/24 08:02:32;;;;;;;7.10;4.50;;;;;;;;;;5036522;28;20397;-87
2023/07/24 08:04:58;;;;;;;9.55;4.60;;;;;;;;;;5045256;28;20049;-89
2023/07/24 08:07:24;;;;;;;6.45;4.85;;;;;;;;;;5043947;28;20037;-89
2023/07/24 08:09:50;;;;;;;9.13;5.30;;;;;;;;;;5033574;28;20547;-89
2023/07/24 08:12:16;;;;;;;8.32;4.30;;;;;;;;;;5033701;28;20152;-85
2023/07/24 08:14:42;;;;;;;8.07;4.60;;;;;;;;;;5028928;28;20045;-88
2023/07/24 08:17:08;;;;;;;5.93;4.15;;;;;;;;;;5036930;28;20437;-87
2023/07/24 08:19:34;;;;;;;8.02;4.90;;;;;;;;;;5031799;28;20060;-86
2023/07/24 08:22:00;;;;;;;6.63;4.53;;;;;;;;;;5034627;28;20431;-90
2023/07/24 08:24:26;;;;;;;7.65;4.30;;;;;;;;;;5042396;28;20418;-89
2023/07/24 08:26:52;;;;;;;6.07;4.22;;;;;;;;;;5026836;28;20034;-90
2023/07/24 08:29:18;;;;;;;5.45;4.30;;;;;;;;;;5030618;28;20038;-89
2023/07/24 08:31:44;;;;;;;6.07;4.43;;;;;;;;;;5027346;28;20029;-89
2023/07/24 08:34:10;;;;;;;7.50;4.60;;;;;;;;;;5035940;28;20413;-86
2023/07/24 08:36:37;;;;;;;8.25;4.18;;;;;;;;;;5023284;28;20049;-87
2023/07/24 08:39:03;;;;;;;8.35;4.93;;;;;;;;;;5030907;28;20389;-86
2023/07/24 08:41:32;;;;;;;11.15;5.68;;;;;;;;;;5012579;28;20060;-86
2023/07/24 08:43:58;;;;;;;8.00;4.47;;;;;;;;;;5030663;28;20045;-85
2023/07/24 08:46:25;;;;;;;8.23;4.90;;;;;;;;;;5026393;28;20044;-88
2023/07/24 08:48:51;;;;;;;6.80;4.97;;;;;;;;;;5048065;28;20127;-86
2023/07/24 08:51:18;;;;;;;8.05;5.28;;;;;;;;;;5039227;28;20048;-86
2023/07/24 08:53:44;;;;;;;7.90;5.68;;;;;;;;;;5033057;28;20038;-86
2023/07/24 08:56:14;;;;;;;9.82;5.43;;;;;;;;;;5034457;28;20083;-86
2023/07/24 08:58:41;;;;;;;10.85;5.38;;;;;;;;;;5050039;28;20088;-85
2023/07/24 09:01:08;;;;;;;7.25;5.10;;;;;;;;;;5050388;28;20110;-87
2023/07/24 09:03:35;;;;;;;10.98;6.07;;;;;;;;;;5040131;28;20056;-86
2023/07/24 09:06:03;;;;;;;8.80;5.57;;;;;;;;;;5021804;28;20052;-86
2023/07/24 09:08:30;;;;;;;7.38;4.85;;;;;;;;;;5029673;28;20041;-87
2023/07/24 09:10:56;;;;;;;9.40;5.25;;;;;;;;;;5030225;28;20049;-87
2023/07/24 09:13:22;;;;;;;6.82;3.92;;;;;;;;;;5029649;28;20038;-87
2023/07/24 09:15:48;;;;;;;5.93;4.72;;;;;;;;;;5028150;28;20040;-85
2023/07/24 09:18:15;;;;;;;5.20;3.97;;;;;;;;;;5014317;28;20068;-87
2023/07/24 09:20:42;;;;;;;6.22;4.28;;;;;;;;;;5035800;28;20045;-86
2023/07/24 09:23:09;;;;;;;7.07;4.57;;;;;;;;;;5028998;28;20048;-87
2023/07/24 09:25:35;;;;;;;5.95;4.20;;;;;;;;;;5024416;28;20056;-86
2023/07/24 09:28:02;;;;;;;9.45;4.93;;;;;;;;;;5034214;28;20041;-86
2023/07/24 09:30:27;;;;;;;10.68;5.72;;;;;;;;;;5029801;28;20045;-88
2023/07/24 09:32:54;;;;;;;7.22;4.25;;;;;;;;;;5032631;28;20446;-88
2023/07/24 09:35:27;;;;;;;8.02;4.65;;;;;;;;;;5030530;28;20064;-86
2023/07/24 09:38:02;;;;;;;6.78;4.95;;;;;;;;;;5049784;28;20060;-86
2023/07/24 09:40:28;;;;;;;8.32;5.32;;;;;;;;;;5028273;28;20033;-86
2023/07/24 09:42:54;;;;;;;5.53;4.72;;;;;;;;;;5028994;28;20038;-89
2023/07/24 09:45:20;;;;;;;6.72;4.43;;;;;;;;;;5028553;28;20405;-88
2023/07/24 09:47:48;;;;;;;6.13;4.07;;;;;;;;;;5033169;28;20430;-88
2023/07/24 09:50:14;;;;;;;7.85;4.18;;;;;;;;;;5029988;28;20107;-89
2023/07/24 09:52:41;;;;;;;6.60;3.83;;;;;;;;;;5033463;28;20037;-87
2023/07/24 09:55:22;;;;;;;6.22;4.00;;;;;;;;;;5035665;28;20037;-86
2023/07/24 09:57:49;;;;;;;6.15;4.45;;;;;;;;;;5017777;28;20049;-87
2023/07/24 10:00:15;;;;;;;4.60;3.55;;;;;;;;;;5048006;28;20111;-88
2023/07/24 10:02:41;;;;;;;5.28;3.95;;;;;;;;;;5027818;28;20398;-88
2023/07/24 10:05:07;;;;;;;6.32;4.20;;;;;;;;;;5021761;28;20037;-87
2023/07/24 10:07:34;;;;;;;9.02;5.22;;;;;;;;;;5024107;28;20203;-88
2023/07/24 10:10:01;;;;;;;5.47;3.72;;;;;;;;;;5027101;28;20053;-87
2023/07/24 10:12:27;;;;;;;8.48;4.70;;;;;;;;;;5029573;28;20144;-87
2023/07/24 10:14:54;;;;;;;6.53;4.20;;;;;;;;;;5049404;28;20079;-91
2023/07/24 10:17:40;;;;;;;8.40;4.53;;;;;;;;;;5041672;28;20052;-89
2023/07/24 10:20:06;;;;;;;5.70;3.92;;;;;;;;;;5030184;28;20030;-89
2023/07/24 10:22:33;;;;;;;6.03;4.07;;;;;;;;;;5014767;28;20080;-87
2023/07/24 10:24:59;;;;;;;8.20;4.22;;;;;;;;;;5040128;28;20045;-87
2023/07/24 10:27:25;;;;;;;6.40;3.92;;;;;;;;;;5028582;28;20038;-91
2023/07/24 10:30:00;;;;;;;7.15;3.60;;;;;;;;;;5023226;28;20045;-89
2023/07/24 10:32:26;;;;;;;4.72;3.58;;;;;;;;;;5028819;28;20050;-90
2023/07/24 10:34:56;;;;;;;7.63;4.78;;;;;;;;;;5028397;28;20067;-88
2023/07/24 10:37:31;;;;;;;6.65;4.03;;;;;;;;;;5040026;28;20045;-90
2023/07/24 10:39:57;;;;;;;7.95;4.88;;;;;;;;;;5025203;28;20049;-89
2023/07/24 10:42:23;;;;;;;5.65;3.85;;;;;;;;;;5028985;28;20033;-89
2023/07/24 10:44:49;;;;;;;7.97;4.55;;;;;;;;;;5024328;28;20051;-88
2023/07/24 10:47:15;;;;;;;5.68;4.30;;;;;;;;;;5037922;28;20037;-90
2023/07/24 10:49:49;;;;;;;5.30;3.85;;;;;;;;;;5028356;28;20411;-93
2023/07/24 10:52:15;;;;;;;6.07;4.20;;;;;;;;;;5039213;28;20390;-92
2023/07/24 10:54:41;;;;;;;5.97;3.85;;;;;;;;;;5036471;28;20037;-89
2023/07/24 10:57:07;;;;;;;5.10;3.88;;;;;;;;;;5051474;28;20045;-90
2023/07/24 10:59:39;;;;;;;6.30;3.80;;;;;;;;;;5047599;28;20061;-93
2023/07/24 11:02:07;;;;;;;7.45;3.72;;;;;;;;;;5053403;28;20044;-90
2023/07/24 11:04:33;;;;;;;4.03;3.63;;;;;;;;;;5029049;28;20501;-89
2023/07/24 11:07:00;;;;;;;8.50;4.10;;;;;;;;;;5048376;28;20037;-83
2023/07/24 11:09:43;;;;;;;6.22;4.60;;;;;;;;;;5046226;28;20045;-81
2023/07/24 11:12:10;;;;;;;6.00;4.57;;;;;;;;;;5028789;28;20048;-81
2023/07/24 11:14:45;;;;;;;5.68;3.42;;;;;;;;;;5037637;28;20359;-84
2023/07/24 11:17:11;;;;;;;4.95;3.75;;;;;;;;;;5016592;28;20033;-84
2023/07/24 11:19:37;;;;;;;5.72;3.40;;;;;;;;;;5038968;28;20041;-83
2023/07/24 11:22:03;;;;;;;6.30;4.15;;;;;;;;;;5029542;28;20469;-84
2023/07/24 11:24:30;;;;;;;8.27;4.30;;;;;;;;;;5017616;28;20103;-85
2023/07/24 11:26:56;;;;;;;5.45;3.80;;;;;;;;;;5031309;28;20042;-85
2023/07/24 11:29:21;;;;;;;6.15;4.80;;;;;;;;;;5031663;28;20033;-84
2023/07/24 11:31:54;;;;;;;5.53;4.60;;;;;;;;;;5031846;28;20038;-85
2023/07/24 11:34:20;;;;;;;8.27;3.97;;;;;;;;;;5028481;28;20134;-83
2023/07/24 11:36:46;;;;;;;9.75;4.85;;;;;;;;;;5029747;28;20494;-85
2023/07/24 11:39:12;;;;;;;7.20;4.35;;;;;;;;;;5030559;28;20045;-84
2023/07/24 11:41:38;;;;;;;7.85;4.90;;;;;;;;;;5012636;28;20045;-83
2023/07/24 11:44:04;;;;;;;8.02;4.20;;;;;;;;;;5037804;28;20037;-84
2023/07/24 11:46:31;;;;;;;5.80;3.70;;;;;;;;;;5035528;28;20525;-84
2023/07/24 11:48:57;;;;;;;7.25;4.57;;;;;;;;;;5031866;28;20037;-87
2023/07/24 11:51:25;;;;;;;4.38;3.45;;;;;;;;;;5017406;28;20049;-86
2023/07/24 11:53:52;;;;;;;6.85;3.90;;;;;;;;;;5030908;28;20041;-85
2023/07/24 11:56:18;;;;;;;4.55;4.15;;;;;;;;;;5013016;28;20048;-86
2023/07/24 11:58:44;;;;;;;6.75;4.35;;;;;;;;;;5033281;28;20116;-85
2023/07/24 12:01:13;;;;;;;6.85;4.35;;;;;;;;;;5035151;28;20061;-82
2023/07/24 12:03:39;;;;;;;6.75;4.88;;;;;;;;;;5048865;28;20045;-86
2023/07/24 12:06:05;;;;;;;6.38;4.57;;;;;;;;;;5042528;28;20033;-91
2023/07/24 12:08:32;;;;;;;9.43;5.10;;;;;;;;;;5030845;28;20068;-89
2023/07/24 12:10:58;;;;;;;7.78;5.43;;;;;;;;;;5032187;28;20045;-87
2023/07/24 12:13:24;;;;;;;6.35;4.72;;;;;;;;;;5050635;28;20049;-89
2023/07/24 12:15:50;;;;;;;8.95;5.35;;;;;;;;;;5029110;28;20033;-89
2023/07/24 12:18:16;;;;;;;5.93;4.28;;;;;;;;;;5011703;28;20053;-89
2023/07/24 12:20:42;;;;;;;8.23;4.32;;;;;;;;;;5030647;28;20115;-89
2023/07/24 12:23:08;;;;;;;8.60;4.60;;;;;;;;;;5050073;28;20028;-90
2023/07/24 12:25:34;;;;;;;6.63;4.45;;;;;;;;;;5028894;28;20139;-89
2023/07/24 12:28:00;;;;;;;6.65;4.72;;;;;;;;;;5040588;28;20140;-92
2023/07/24 12:30:26;;;;;;;6.00;3.63;;;;;;;;;;5025048;28;20072;-88
2023/07/24 12:32:52;;;;;;;4.97;4.10;;;;;;;;;;5029119;28;20033;-91
2023/07/24 12:35:18;;;;;;;6.95;3.83;;;;;;;;;;5053541;28;20351;-87
2023/07/24 12:37:45;;;;;;;9.32;4.22;;;;;;;;;;5034613;28;20037;-87
2023/07/24 12:40:12;;;;;;;5.35;4.25;;;;;;;;;;5032802;28;20083;-85
2023/07/24 12:42:38;;;;;;;7.55;4.40;;;;;;;;;;5029272;28;20052;-85
2023/07/24 12:45:04;;;;;;;5.72;4.18;;;;;;;;;;4996743;28;20056;-86
2023/07/24 12:47:31;;;;;;;7.68;4.13;;;;;;;;;;5029382;28;20041;-86
2023/07/24 12:49:57;;;;;;;7.60;5.78;;;;;;;;;;5042770;28;20045;-85
2023/07/24 12:52:24;;;;;;;5.93;4.80;;;;;;;;;;5032225;28;20041;-86
2023/07/24 12:54:50;;;;;;;6.70;5.30;;;;;;;;;;5032311;28;20086;-85
2023/07/24 12:57:16;;;;;;;6.22;4.45;;;;;;;;;;5031397;28;20077;-87
2023/07/24 12:59:42;;;;;;;5.35;4.50;;;;;;;;;;5028142;28;20401;-85
2023/07/24 13:02:08;;;;;;;6.03;4.72;;;;;;;;;;5029340;28;20103;-85
2023/07/24 13:04:34;;;;;;;5.45;3.72;;;;;;;;;;5037962;28;20073;-86
2023/07/24 13:07:00;;;;;;;6.45;4.38;;;;;;;;;;5038605;28;20037;-90
2023/07/24 13:09:27;;;;;;;6.25;4.13;;;;;;;;;;5047766;28;20041;-87
2023/07/24 13:11:54;;;;;;;5.30;4.25;;;;;;;;;;5021700;28;20390;-84
2023/07/24 13:14:20;;;;;;;6.85;3.97;;;;;;;;;;5039123;28;20037;-83
2023/07/24 13:16:46;;;;;;;5.90;4.15;;;;;;;;;;5034165;28;20128;-83
2023/07/24 13:19:12;;;;;;;5.03;3.92;;;;;;;;;;5021378;28;20090;-82
2023/07/24 13:21:42;;;;;;;6.43;3.88;;;;;;;;;;5034659;28;20045;-84
2023/07/24 13:24:09;;;;;;;6.55;4.57;;;;;;;;;;5022521;28;20040;-86
2023/07/24 13:26:35;;;;;;;4.63;4.10;;;;;;;;;;5012276;28;20044;-86
2023/07/24 13:29:01;;;;;;;4.38;3.95;;;;;;;;;;5015494;28;20046;-87
2023/07/24 13:31:30;;;;;;;4.93;3.70;;;;;;;;;;5009040;28;20068;-86
2023/07/24 13:33:56;;;;;;;4.68;3.28;;;;;;;;;;5037211;28;20041;-85
2023/07/24 13:36:22;;;;;;;4.88;3.50;;;;;;;;;;5035941;28;21347;-86
2023/07/24 13:38:48;;;;;;;5.55;3.80;;;;;;;;;;5011525;28;20041;-86
2023/07/24 13:41:14;;;;;;;5.28;4.63;;;;;;;;;;5009138;28;20509;-87
2023/07/24 13:43:40;;;;;;;4.70;3.45;;;;;;;;;;5013316;28;20038;-84
2023/07/24 13:46:08;;;;;;;4.32;3.92;;;;;;;;;;5034902;28;20064;-87
2023/07/24 13:48:34;;;;;;;5.05;3.10;;;;;;;;;;5025560;28;20552;-86
2023/07/24 13:51:00;;;;;;;5.03;3.08;;;;;;;;;;5027315;28;20041;-84
2023/07/24 13:53:26;;;;;;;4.25;2.90;;;;;;;;;;5028791;28;20084;-89
2023/07/24 13:55:52;;;;;;;4.05;3.08;;;;;;;;;;5010818;28;20071;-86
2023/07/24 13:58:18;;;;;;;3.78;3.08;;;;;;;;;;5011082;28;20045;-86
2023/07/24 14:00:44;;;;;;;6.20;2.85;;;;;;;;;;5019395;28;20054;-86
2023/07/24 14:03:10;;;;;;;3.95;3.03;;;;;;;;;;5028267;28;20049;-88
2023/07/24 14:05:39;;;;;;;4.57;3.03;;;;;;;;;;5031747;28;20098;-87
2023/07/24 14:08:05;;;;;;;3.72;2.75;;;;;;;;;;5029472;28;20064;-83
2023/07/24 14:10:31;;;;;;;3.78;2.85;;;;;;;;;;5008417;28;20041;-84
2023/07/24 14:12:57;;;;;;;4.55;4.00;;;;;;;;;;5038262;28;20045;-83
2023/07/24 14:15:23;;;;;;;3.88;2.83;;;;;;;;;;5027477;28;20135;-85
2023/07/24 14:17:49;;;;;;;5.88;3.17;;;;;;;;;;5027443;28;20045;-84
2023/07/24 14:20:15;;;;;;;3.13;2.58;;;;;;;;;;5034850;28;20037;-81
2023/07/24 14:22:41;;;;;;;2.33;2.00;;;;;;;;;;5030513;28;20037;-83
2023/07/24 14:25:08;;;;;;;2.47;2.00;;;;;;;;;;5034254;28;20067;-83
2023/07/24 14:27:34;;;;;;;2.15;1.85;;;;;;;;;;5033501;28;20869;-85
2023/07/24 14:30:00;;;;;;;2.95;2.15;;;;;;;;;;5028281;28;20156;-85
2023/07/24 14:32:26;;;;;;;3.08;1.70;;;;;;;;;;5031778;28;20047;-84
2023/07/24 14:34:52;;;;;;;1.80;1.67;;;;;;;;;;5045942;28;20049;-86
2023/07/24 14:37:19;;;;;;;1.50;1.35;;;;;;;;;;5029764;28;20099;-85
2023/07/24 14:39:45;;;;;;;2.40;1.80;;;;;;;;;;5031584;28;20479;-85